TimeMDT,TemperatureF,Dew PointF,Humidity,Sea Level PressureIn,VisibilityMPH,Wind Direction,Wind SpeedMPH,Gust SpeedMPH,PrecipitationIn,Events,Conditions,WindDirDegrees,DateUTC
12:15 AM,57.2,57.2,100,30.27,9.0,SW,3.5,-,N/A,,Overcast,230,2013-09-13 06:15:00
12:35 AM,57.2,57.2,100,30.26,10.0,South,3.5,-,N/A,,Overcast,190,2013-09-13 06:35:00
12:55 AM,57.2,57.2,100,30.26,10.0,Calm,Calm,-,N/A,,Overcast,0,2013-09-13 06:55:00
1:15 AM,57.2,57.2,100,30.25,10.0,Calm,Calm,-,N/A,,Overcast,0,2013-09-13 07:15:00
1:35 AM,57.2,57.2,100,30.25,10.0,Calm,Calm,-,N/A,,Overcast,0,2013-09-13 07:35:00
1:55 AM,57.2,57.2,100,30.24,8.0,Calm,Calm,-,0.01,,Overcast,0,2013-09-13 07:55:00
2:15 AM,57.2,57.2,100,30.24,9.0,West,4.6,-,0.02,,Overcast,270,2013-09-13 08:15:00
2:35 AM,57.2,57.2,100,30.23,10.0,Calm,Calm,-,0.04,,Overcast,0,2013-09-13 08:35:00
2:55 AM,55.4,55.4,100,30.22,10.0,Calm,Calm,-,0.05,,Overcast,0,2013-09-13 08:55:00
3:15 AM,55.4,55.4,100,30.22,10.0,WSW,3.5,-,0.04,,Overcast,240,2013-09-13 09:15:00
3:35 AM,55.4,53.6,94,30.23,10.0,West,3.5,-,0.06,,Overcast,260,2013-09-13 09:35:00
3:55 AM,55.4,53.6,94,30.23,9.0,West,3.5,-,0.10,,Overcast,260,2013-09-13 09:55:00
4:15 AM,55.4,55.4,100,30.23,10.0,SW,4.6,-,0.06,,Overcast,220,2013-09-13 10:15:00
4:35 AM,55.4,55.4,100,30.22,3.0,SE,3.5,-,0.12,,Overcast,140,2013-09-13 10:35:00
4:55 AM,55.4,55.4,100,30.21,9.0,ENE,3.5,-,0.17,,Overcast,60,2013-09-13 10:55:00
5:15 AM,55.4,55.4,100,30.21,10.0,Calm,Calm,-,0.01,,Overcast,0,2013-09-13 11:15:00
5:35 AM,55.4,53.6,94,30.21,9.0,Calm,Calm,-,0.03,,Overcast,0,2013-09-13 11:35:00
5:55 AM,55.4,53.6,94,30.20,10.0,Calm,Calm,-,0.03,,Mostly Cloudy,0,2013-09-13 11:55:00
6:15 AM,55.4,55.4,100,30.19,10.0,Calm,Calm,-,N/A,,Mostly Cloudy,0,2013-09-13 12:15:00
6:35 AM,55.4,55.4,100,30.19,10.0,SSW,4.6,-,N/A,,Overcast,210,2013-09-13 12:35:00
6:50 AM,55.4,53.6,94,30.19,4.0,Calm,Calm,-,N/A,,Overcast,0,2013-09-13 12:50:00
7:50 AM,55.4,53.6,94,30.19,8.0,Calm,Calm,-,N/A,,Mostly Cloudy,0,2013-09-13 13:50:00
8:50 AM,57.2,57.2,100,30.19,7.0,Calm,Calm,-,N/A,,Mostly Cloudy,0,2013-09-13 14:50:00
9:50 AM,60.8,57.2,88,30.19,7.0,Calm,Calm,-,N/A,,Mostly Cloudy,0,2013-09-13 15:50:00
10:50 AM,60.8,55.4,82,30.18,10.0,Calm,Calm,-,N/A,,Mostly Cloudy,0,2013-09-13 16:50:00
11:50 AM,66.2,53.6,64,30.15,10.0,Variable,4.6,-,N/A,,Scattered Clouds,0,2013-09-13 17:50:00
12:50 PM,68.0,53.6,60,30.12,10.0,Variable,3.5,-,N/A,,Scattered Clouds,0,2013-09-13 18:50:00
1:50 PM,71.6,51.8,50,30.09,10.0,WNW,4.6,-,N/A,,Mostly Cloudy,290,2013-09-13 19:50:00
2:50 PM,73.4,44.6,36,30.07,10.0,SW,15.0,-,N/A,,Mostly Cloudy,230,2013-09-13 20:50:00
3:50 PM,71.6,44.6,38,30.07,10.0,West,11.5,-,N/A,,Mostly Cloudy,260,2013-09-13 21:50:00
4:50 PM,71.6,44.6,38,30.05,10.0,West,5.8,-,N/A,,Scattered Clouds,280,2013-09-13 22:50:00
5:50 PM,73.4,41.0,31,30.03,10.0,Calm,Calm,-,N/A,,Scattered Clouds,0,2013-09-13 23:50:00
6:50 PM,71.6,42.8,35,30.03,10.0,Calm,Calm,-,N/A,,Scattered Clouds,0,2013-09-14 00:50:00
6:55 PM,71.6,42.8,35,30.03,10.0,Calm,Calm,-,N/A,,Scattered Clouds,0,2013-09-14 00:55:00
7:15 PM,68.0,50.0,52,30.03,10.0,SE,3.5,-,N/A,,Clear,140,2013-09-14 01:15:00
7:35 PM,66.2,48.2,52,30.03,10.0,Calm,Calm,-,N/A,,Scattered Clouds,0,2013-09-14 01:35:00
7:55 PM,62.6,51.8,68,30.04,10.0,ENE,4.6,-,N/A,,Mostly Cloudy,70,2013-09-14 01:55:00
8:15 PM,62.6,51.8,68,30.05,10.0,Calm,Calm,-,N/A,,Mostly Cloudy,0,2013-09-14 02:15:00
8:35 PM,60.8,51.8,72,30.05,10.0,ESE,3.5,-,N/A,,Partly Cloudy,120,2013-09-14 02:35:00
8:55 PM,60.8,51.8,72,30.06,10.0,Calm,Calm,-,N/A,,Mostly Cloudy,0,2013-09-14 02:55:00
9:15 PM,59.0,51.8,77,30.07,10.0,ENE,3.5,-,N/A,,Mostly Cloudy,60,2013-09-14 03:15:00
9:35 PM,60.8,51.8,72,30.08,10.0,East,4.6,-,N/A,,Mostly Cloudy,90,2013-09-14 03:35:00
9:55 PM,57.2,51.8,82,30.08,10.0,SSE,3.5,-,N/A,,Clear,150,2013-09-14 03:55:00
10:15 PM,57.2,51.8,82,30.08,10.0,SSE,3.5,-,N/A,,Scattered Clouds,160,2013-09-14 04:15:00
10:55 PM,57.2,51.8,82,30.09,10.0,Calm,Calm,-,N/A,,Clear,0,2013-09-14 04:55:00
11:15 PM,57.2,51.8,82,30.09,10.0,South,4.6,-,N/A,,Clear,180,2013-09-14 05:15:00
11:35 PM,55.4,51.8,88,30.10,10.0,Calm,Calm,-,N/A,,Scattered Clouds,0,2013-09-14 05:35:00
11:55 PM,55.4,51.8,88,30.09,10.0,Calm,Calm,-,N/A,,Scattered Clouds,0,2013-09-14 05:55:00